Archival Weather

Fayette Rgnl Air Cntr Arp

Fayette Rgnl Air Cntr Arp, Texas (K3T5)

Report from: Thursday, September 22, 2022 2:55 AM CDT
Current time: Friday, February 3, 2023 11:49 PM CST

Current weather
Weather history
Weather forecast

Temperature21.6°C (70.9°F)
Dew point21.2°C (70.2°F)
Winds Calm
Visibility7 mi. (11.3 km)
Clouds Sky clear
Altimeter29.98 in.Hg (1015 mB)
Relative humidity98 %
Density altitude1,042 ft. (318 m)
Remarks Fully automated report
Automated weather observing station with precipitation discriminator
Flight conditions Visual Meteorological Conditions
Raw dataK3T5 220755Z AUTO 00000KT 7SM CLR 22/21 A2998 RMK AO2 T02160212
An unhandled exception has occurred. See browser dev tools for details. Reload 🗙